Time;durP1;ratioP1;P1;durP2;ratioP2;P2;SDS_P1;SDS_P2;PMS_P1;PMS_P2;Temp;Humidity;BMP_temperature;BMP_pressure;BME280_temperature;BME280_humidity;BME280_pressure;Samples;Min_cycle;Max_cycle;Signal;HPM_P1;HPM_P2
2022/01/27 00:03:07;;;;;;;19.13;13.97;;;;;;;2.80;100.00;101437.56;5093603;28;20682;-79
2022/01/27 00:05:33;;;;;;;17.00;13.37;;;;;;;2.80;100.00;101434.97;5091481;28;20223;-78
2022/01/27 00:08:10;;;;;;;17.87;13.57;;;;;;;2.80;100.00;101436.69;5076701;28;20196;-80
2022/01/27 00:10:50;;;;;;;16.17;13.47;;;;;;;2.78;100.00;101439.22;5075963;28;20283;-79
2022/01/27 00:13:18;;;;;;;15.63;13.53;;;;;;;2.78;100.00;101434.06;5075633;28;20214;-80
2022/01/27 00:15:48;;;;;;;14.97;12.60;;;;;;;2.81;100.00;101441.88;5076499;28;20197;-80
2022/01/27 00:18:17;;;;;;;19.30;13.47;;;;;;;2.78;99.69;101424.63;5077282;28;20221;-82
2022/01/27 00:20:45;;;;;;;27.67;18.47;;;;;;;2.86;100.00;101424.84;5076873;28;20208;-82
2022/01/27 00:23:11;;;;;;;13.67;12.23;;;;;;;2.93;99.38;101441.34;5075028;28;20201;-79
2022/01/27 00:25:39;;;;;;;15.00;12.67;;;;;;;2.95;99.32;101438.00;5075564;28;20197;-79
2022/01/27 00:28:06;;;;;;;13.87;12.00;;;;;;;3.00;98.81;101457.88;5075725;28;20197;-79
2022/01/27 00:30:32;;;;;;;13.50;11.80;;;;;;;2.93;98.80;101467.13;5074765;28;20197;-78
2022/01/27 00:32:59;;;;;;;14.23;12.30;;;;;;;2.91;98.76;101468.78;5074907;28;20193;-82
2022/01/27 00:35:25;;;;;;;14.60;13.10;;;;;;;2.82;98.53;101458.25;5075206;28;20201;-80
2022/01/27 00:38:04;;;;;;;14.93;12.50;;;;;;;2.89;98.89;101457.56;5075498;28;20626;-80
2022/01/27 00:40:31;;;;;;;14.13;12.37;;;;;;;2.91;98.44;101463.63;5075689;28;20192;-79
2022/01/27 00:42:59;;;;;;;14.90;12.57;;;;;;;2.90;98.07;101457.63;5077124;28;20201;-80
2022/01/27 00:45:30;;;;;;;14.97;11.73;;;;;;;2.78;98.44;101459.84;5076836;28;20231;-79
2022/01/27 00:47:57;;;;;;;14.73;12.43;;;;;;;2.87;98.51;101447.19;5076705;28;20291;-82
2022/01/27 00:50:23;;;;;;;14.70;11.80;;;;;;;2.92;98.45;101449.94;5076875;28;20211;-80
2022/01/27 00:52:53;;;;;;;15.80;12.23;;;;;;;2.89;97.93;101462.72;5076465;28;20608;-80
2022/01/27 00:55:21;;;;;;;14.37;12.87;;;;;;;2.91;97.87;101469.66;5076668;28;20204;-80
2022/01/27 00:58:02;;;;;;;12.47;11.17;;;;;;;2.83;97.70;101478.88;5078409;28;20277;-79
2022/01/27 01:00:34;;;;;;;12.83;11.20;;;;;;;2.89;97.97;101476.47;5075731;28;20201;-80
2022/01/27 01:03:05;;;;;;;12.53;10.43;;;;;;;2.89;97.52;101488.50;5076823;28;20655;-79
2022/01/27 01:05:49;;;;;;;11.50;10.30;;;;;;;2.81;97.84;101487.41;5071920;28;20201;-79
2022/01/27 01:09:03;;;;;;;13.33;11.93;;;;;;;2.89;98.11;101475.63;5074033;28;20205;-79
2022/01/27 01:14:25;;;;;;;12.67;10.17;;;;;;;2.88;97.30;101468.72;5074229;28;20207;-80
2022/01/27 01:17:00;;;;;;;12.30;9.60;;;;;;;2.87;97.98;101456.66;5074452;28;20223;-80
2022/01/27 01:19:38;;;;;;;10.63;9.50;;;;;;;2.81;97.59;101444.44;5074253;28;20690;-80
2022/01/27 01:29:24;;;;;;;13.10;10.57;;;;;;;2.90;97.44;101449.88;5074378;28;20205;-79
2022/01/27 01:30:46;;;;;;;10.07;9.07;;;;;;;2.94;97.44;101423.34;5055703;28;20217;-79
2022/01/27 01:33:20;;;;;;;10.37;8.97;;;;;;;2.88;97.66;101418.03;5057716;28;20205;-79
2022/01/27 01:35:49;;;;;;;9.67;8.73;;;;;;;2.86;97.44;101411.94;5058185;28;20236;-80
2022/01/27 01:38:18;;;;;;;9.67;8.70;;;;;;;2.89;97.67;101409.44;5059190;28;20229;-79
2022/01/27 01:40:45;;;;;;;11.10;8.70;;;;;;;2.89;97.57;101393.97;5056454;28;20206;-79
2022/01/27 01:43:12;;;;;;;10.00;8.87;;;;;;;2.87;97.14;101400.78;5056164;28;20201;-80
2022/01/27 01:45:38;;;;;;;10.13;9.10;;;;;;;2.90;97.51;101405.19;5054984;28;20239;-80
2022/01/27 01:48:05;;;;;;;9.00;8.10;;;;;;;2.94;96.83;101422.47;5055136;28;20243;-79
2022/01/27 01:50:33;;;;;;;11.53;10.33;;;;;;;2.85;96.60;101417.06;5053440;28;20675;-78
2022/01/27 01:52:59;;;;;;;14.03;10.57;;;;;;;2.88;96.94;101397.38;5054086;28;20205;-79
2022/01/27 01:55:26;;;;;;;12.57;10.80;;;;;;;2.97;96.58;101391.59;5054391;28;20205;-79
2022/01/27 01:57:52;;;;;;;12.27;9.77;;;;;;;2.97;96.45;101389.03;5075204;28;20229;-79
2022/01/27 02:00:20;;;;;;;13.67;12.30;;;;;;;2.93;96.60;101382.94;5080174;28;20215;-80
2022/01/27 02:02:46;;;;;;;15.33;13.17;;;;;;;2.85;96.51;101396.44;5081170;28;20209;-78
2022/01/27 02:05:15;;;;;;;13.77;12.37;;;;;;;2.86;96.02;101383.59;5079568;28;20213;-80
2022/01/27 02:07:58;;;;;;;15.50;13.43;;;;;;;2.80;96.72;101392.88;5079814;28;20742;-79
2022/01/27 02:17:48;;;;;;;23.10;15.13;;;;;;;2.66;96.88;101380.44;5081356;28;20196;-81
2022/01/27 02:19:10;;;;;;;23.33;16.73;;;;;;;2.70;96.22;101364.25;5075707;28;20239;-79
2022/01/27 02:21:44;;;;;;;21.77;17.87;;;;;;;2.68;96.15;101385.66;5077787;28;20707;-78
2022/01/27 02:24:11;;;;;;;24.60;15.83;;;;;;;2.65;96.15;101370.94;5075685;28;20779;-78
2022/01/27 02:26:37;;;;;;;25.07;19.40;;;;;;;2.65;96.07;101359.78;5078346;28;20297;-77
2022/01/27 02:29:04;;;;;;;33.80;20.27;;;;;;;2.71;96.41;101362.53;5078216;28;20222;-78
2022/01/27 02:31:30;;;;;;;24.97;18.47;;;;;;;2.72;96.03;101348.81;5077477;28;20204;-77
2022/01/27 02:33:57;;;;;;;26.47;19.20;;;;;;;2.64;95.50;101358.91;5078397;28;20208;-77
2022/01/27 02:36:24;;;;;;;23.80;18.43;;;;;;;2.62;95.57;101355.41;5078158;28;20255;-78
2022/01/27 02:38:51;;;;;;;25.50;19.23;;;;;;;2.67;95.06;101358.13;5078244;28;20224;-78
2022/01/27 02:41:21;;;;;;;31.03;19.40;;;;;;;2.68;94.69;101377.91;5077005;28;20205;-78
2022/01/27 02:43:47;;;;;;;33.93;21.63;;;;;;;2.73;94.62;101396.94;5077598;28;20677;-77
2022/01/27 02:46:21;;;;;;;33.63;21.67;;;;;;;2.75;94.20;101396.16;5078137;28;20228;-78
2022/01/27 02:48:47;;;;;;;24.27;18.47;;;;;;;2.76;94.36;101425.41;5078114;28;20204;-80
2022/01/27 02:51:13;;;;;;;36.37;22.10;;;;;;;2.82;93.88;101416.97;5077802;28;20209;-77
2022/01/27 02:53:40;;;;;;;40.50;23.47;;;;;;;2.77;93.62;101432.31;5077137;28;20583;-78
2022/01/27 02:56:07;;;;;;;43.43;23.17;;;;;;;2.69;93.29;101450.13;5076990;28;20262;-79
2022/01/27 02:58:34;;;;;;;42.03;25.83;;;;;;;2.62;93.79;101452.47;5076687;28;20221;-80
2022/01/27 03:01:00;;;;;;;53.07;28.60;;;;;;;2.64;92.83;101467.16;5078151;28;20272;-80
2022/01/27 03:03:27;;;;;;;44.43;29.10;;;;;;;2.65;92.77;101455.16;5078901;28;20209;-80
2022/01/27 03:05:53;;;;;;;60.60;32.47;;;;;;;2.67;92.25;101468.97;5077912;28;20600;-80
2022/01/27 03:08:20;;;;;;;50.30;30.17;;;;;;;2.65;92.16;101468.03;5078336;28;20200;-80
2022/01/27 03:10:53;;;;;;;57.40;29.47;;;;;;;2.70;92.47;101480.25;5077822;28;20212;-80
2022/01/27 03:13:21;;;;;;;49.80;27.20;;;;;;;2.69;92.05;101485.34;5077897;28;20755;-81
2022/01/27 03:15:47;;;;;;;53.37;29.93;;;;;;;2.68;92.37;101474.16;5077893;28;20283;-80
2022/01/27 03:18:13;;;;;;;47.43;27.60;;;;;;;2.70;91.73;101472.50;5078322;28;20235;-79
2022/01/27 03:20:40;;;;;;;47.47;28.13;;;;;;;2.68;92.01;101476.75;5077027;28;20200;-80
2022/01/27 03:23:07;;;;;;;55.97;29.80;;;;;;;2.69;91.67;101464.72;5078017;28;20269;-79
2022/01/27 03:25:33;;;;;;;47.47;28.77;;;;;;;2.69;91.37;101460.44;5078100;28;20209;-80
2022/01/27 03:27:59;;;;;;;51.90;29.30;;;;;;;2.65;91.18;101478.34;5077317;28;20232;-80
2022/01/27 03:30:27;;;;;;;57.07;28.60;;;;;;;2.66;91.29;101488.72;5076513;28;20208;-79
2022/01/27 03:32:54;;;;;;;56.00;29.63;;;;;;;2.65;91.94;101468.03;5077917;28;20262;-80
2022/01/27 03:35:20;;;;;;;50.57;28.40;;;;;;;2.63;91.46;101469.69;5077155;28;20205;-80
2022/01/27 03:37:46;;;;;;;54.63;30.43;;;;;;;2.56;91.97;101484.97;5077123;28;20236;-80
2022/01/27 03:40:13;;;;;;;52.10;32.03;;;;;;;2.56;91.87;101479.81;5076907;28;20230;-78
2022/01/27 03:42:45;;;;;;;58.00;32.17;;;;;;;2.54;91.80;101470.31;5077174;28;20231;-80
2022/01/27 03:45:14;;;;;;;53.10;31.20;;;;;;;2.56;91.53;101471.22;5077163;28;20679;-80
2022/01/27 03:47:42;;;;;;;60.90;31.93;;;;;;;2.57;91.54;101467.81;5078032;28;20220;-79
2022/01/27 03:50:09;;;;;;;54.40;31.37;;;;;;;2.55;91.52;101490.94;5076833;28;20262;-80
2022/01/27 03:52:36;;;;;;;57.20;32.07;;;;;;;2.48;91.37;101488.13;5076965;28;20209;-80
2022/01/27 03:55:02;;;;;;;50.23;29.43;;;;;;;2.52;90.75;101477.13;5077287;28;20679;-79
2022/01/27 03:57:28;;;;;;;54.13;30.53;;;;;;;2.54;90.72;101486.63;5075793;28;20266;-80
2022/01/27 03:59:55;;;;;;;54.20;30.43;;;;;;;2.54;90.04;101501.22;5076561;28;20277;-80
2022/01/27 04:02:21;;;;;;;57.20;32.53;;;;;;;2.48;89.77;101491.59;5077156;28;20205;-81
2022/01/27 04:04:49;;;;;;;57.83;30.97;;;;;;;2.53;89.99;101479.72;5076221;28;20207;-80
2022/01/27 04:07:15;;;;;;;40.73;26.03;;;;;;;2.48;89.11;101480.41;5077054;28;20229;-80
2022/01/27 04:09:42;;;;;;;45.87;26.10;;;;;;;2.52;88.96;101497.72;5075998;28;20216;-80
2022/01/27 04:12:09;;;;;;;42.47;27.10;;;;;;;2.50;89.02;101501.97;5077059;28;20619;-80
2022/01/27 04:14:36;;;;;;;36.27;23.67;;;;;;;2.45;88.47;101517.25;5077431;28;20246;-80
2022/01/27 04:17:03;;;;;;;44.10;26.73;;;;;;;2.52;89.30;101508.91;5077739;28;20228;-79
2022/01/27 04:19:30;;;;;;;41.17;26.17;;;;;;;2.50;88.86;101513.13;5075294;28;20771;-80
2022/01/27 04:21:57;;;;;;;37.50;25.10;;;;;;;2.53;88.71;101502.03;5076927;28;20209;-80
2022/01/27 04:24:24;;;;;;;45.67;26.63;;;;;;;2.55;89.03;101487.50;5076772;28;20208;-80
2022/01/27 04:26:58;;;;;;;48.80;28.10;;;;;;;2.51;88.29;101499.41;5076035;28;20220;-80
2022/01/27 04:29:25;;;;;;;41.47;25.97;;;;;;;2.59;88.20;101508.25;5068350;28;20200;-80
2022/01/27 04:31:52;;;;;;;43.17;25.40;;;;;;;2.51;88.35;101496.84;5076298;28;20205;-79
2022/01/27 04:34:19;;;;;;;46.37;26.73;;;;;;;2.48;87.92;101511.31;5075735;28;20675;-81
2022/01/27 04:36:45;;;;;;;45.73;24.40;;;;;;;2.44;87.74;101510.38;5076734;28;20235;-80
2022/01/27 04:39:19;;;;;;;43.20;25.23;;;;;;;2.43;87.81;101518.91;5077002;28;20225;-80
2022/01/27 04:41:50;;;;;;;37.43;25.10;;;;;;;2.45;87.95;101500.94;5076315;28;20208;-80
2022/01/27 04:44:24;;;;;;;41.43;24.27;;;;;;;2.40;87.57;101498.22;5076545;28;20192;-79
2022/01/27 04:46:56;;;;;;;38.03;24.87;;;;;;;2.44;88.37;101494.91;5076360;28;20323;-81
2022/01/27 04:49:23;;;;;;;42.27;24.13;;;;;;;2.43;87.72;101480.25;5076146;28;20196;-80
2022/01/27 04:51:49;;;;;;;43.90;24.50;;;;;;;2.38;88.00;101485.28;5076919;28;20227;-81
2022/01/27 04:54:22;;;;;;;37.37;23.77;;;;;;;2.35;87.82;101476.56;5076968;28;20763;-80
2022/01/27 04:56:49;;;;;;;40.40;24.27;;;;;;;2.36;88.51;101460.31;5075944;28;20319;-80
2022/01/27 04:59:19;;;;;;;36.13;22.77;;;;;;;2.39;87.96;101460.38;5076553;28;20606;-81
2022/01/27 05:01:50;;;;;;;46.07;24.23;;;;;;;2.38;88.58;101449.22;5076956;28;20228;-80
2022/01/27 05:04:19;;;;;;;41.23;23.73;;;;;;;2.41;88.79;101427.81;5076736;28;20226;-80
2022/01/27 05:06:48;;;;;;;33.33;23.70;;;;;;;2.41;88.53;101424.38;5075855;28;20264;-80
2022/01/27 05:09:15;;;;;;;44.73;24.37;;;;;;;2.44;88.45;101399.56;5076034;28;20204;-81
2022/01/27 05:11:49;;;;;;;40.03;23.30;;;;;;;2.56;88.00;101373.28;5075531;28;20201;-79
2022/01/27 05:14:18;;;;;;;39.63;23.73;;;;;;;2.50;88.05;101392.03;5076376;28;20213;-80
2022/01/27 05:16:45;;;;;;;44.30;23.87;;;;;;;2.48;87.93;101419.44;5075812;28;20231;-81
2022/01/27 05:19:11;;;;;;;42.83;25.20;;;;;;;2.41;87.74;101408.91;5075974;28;20225;-80
2022/01/27 05:21:38;;;;;;;42.07;24.23;;;;;;;2.48;88.04;101395.34;5075490;28;20208;-80
2022/01/27 05:24:05;;;;;;;44.33;23.87;;;;;;;2.44;88.07;101403.81;5075727;28;20205;-80
2022/01/27 05:26:33;;;;;;;41.17;23.43;;;;;;;2.47;88.23;101367.84;5076427;28;20565;-80
2022/01/27 05:29:01;;;;;;;45.80;25.00;;;;;;;2.47;88.37;101365.28;5076173;28;20246;-81
2022/01/27 05:31:27;;;;;;;35.90;23.53;;;;;;;2.44;88.46;101363.50;5077959;28;20226;-80
2022/01/27 05:33:54;;;;;;;44.17;23.83;;;;;;;2.46;88.41;101364.41;5079848;28;20208;-79
2022/01/27 05:36:20;;;;;;;44.37;22.67;;;;;;;2.49;88.71;101364.50;5079626;28;20707;-81
2022/01/27 05:38:47;;;;;;;39.83;25.80;;;;;;;2.50;88.79;101347.34;5080077;28;20235;-79
2022/01/27 05:41:14;;;;;;;44.10;25.47;;;;;;;2.48;88.29;101338.66;5079416;28;20208;-80
2022/01/27 05:43:41;;;;;;;39.83;20.83;;;;;;;2.39;88.55;101337.56;5079509;28;20291;-81
2022/01/27 05:46:08;;;;;;;43.30;24.70;;;;;;;2.48;88.38;101334.41;5079792;28;20776;-80
2022/01/27 05:48:35;;;;;;;37.47;24.00;;;;;;;2.38;88.03;101311.78;5080371;28;20250;-80
2022/01/27 05:51:02;;;;;;;41.70;25.00;;;;;;;2.47;88.67;101303.44;5079896;28;20255;-80
2022/01/27 05:53:30;;;;;;;41.70;24.73;;;;;;;2.44;88.60;101306.81;5080610;28;20204;-80
2022/01/27 05:55:56;;;;;;;32.53;21.17;;;;;;;2.49;88.90;101281.16;5079842;28;20331;-80
2022/01/27 05:58:23;;;;;;;39.00;23.60;;;;;;;2.45;88.58;101285.34;5091898;22;20231;-76
2022/01/27 06:00:49;;;;;;;37.60;22.83;;;;;;;2.47;88.64;101285.41;5073799;28;20212;-77
2022/01/27 06:03:17;;;;;;;42.50;22.57;;;;;;;2.52;88.40;101281.25;5074536;28;20212;-78
2022/01/27 06:05:44;;;;;;;40.00;22.50;;;;;;;2.54;88.53;101277.03;5076220;28;20209;-78
2022/01/27 06:08:10;;;;;;;37.23;22.70;;;;;;;2.57;88.65;101269.34;5061060;28;20275;-77
2022/01/27 06:10:36;;;;;;;33.77;20.90;;;;;;;2.56;88.64;101276.22;5056177;28;20287;-79
2022/01/27 06:13:03;;;;;;;33.97;21.00;;;;;;;2.56;87.86;101249.59;5055509;28;20270;-78
2022/01/27 06:15:30;;;;;;;34.83;21.70;;;;;;;2.63;87.97;101261.78;5055778;28;20197;-77
2022/01/27 06:17:58;;;;;;;33.67;21.77;;;;;;;2.64;87.75;101267.84;5055542;28;20732;-78
2022/01/27 06:20:28;;;;;;;36.27;21.40;;;;;;;2.57;87.80;101295.13;5055534;28;20229;-78
2022/01/27 06:22:57;;;;;;;32.00;20.40;;;;;;;2.63;88.28;101302.16;5055893;28;20653;-78
2022/01/27 06:25:24;;;;;;;37.67;21.03;;;;;;;2.55;87.79;101313.13;5055380;28;20217;-79
2022/01/27 06:27:50;;;;;;;38.67;21.13;;;;;;;2.50;88.56;101288.94;5054985;28;20232;-77
2022/01/27 06:30:17;;;;;;;36.60;21.63;;;;;;;2.50;87.98;101277.78;5055276;28;20252;-78
2022/01/27 06:32:43;;;;;;;37.17;23.17;;;;;;;2.54;88.82;101274.44;5056035;28;20279;-78
2022/01/27 06:35:10;;;;;;;36.60;23.33;;;;;;;2.56;88.47;101277.94;5055908;28;20274;-79
2022/01/27 06:37:39;;;;;;;31.83;21.70;;;;;;;2.57;88.35;101300.28;5055893;28;20719;-79
2022/01/27 06:40:06;;;;;;;35.63;21.13;;;;;;;2.59;87.81;101298.63;5054912;28;20221;-77
2022/01/27 06:42:33;;;;;;;37.50;21.77;;;;;;;2.64;88.21;101325.41;5054506;28;20209;-79
2022/01/27 06:45:00;;;;;;;32.33;21.40;;;;;;;2.63;87.97;101309.88;5055315;28;20207;-77
2022/01/27 06:47:26;;;;;;;38.70;22.43;;;;;;;2.57;87.70;101311.44;5054586;28;20232;-79
2022/01/27 06:49:52;;;;;;;34.77;21.47;;;;;;;2.67;87.98;101312.59;5053227;28;20201;-79
2022/01/27 06:52:21;;;;;;;31.80;21.33;;;;;;;2.73;88.15;101309.31;5054666;28;20207;-77
2022/01/27 06:54:50;;;;;;;33.50;20.80;;;;;;;2.71;87.99;101323.84;5054584;28;20680;-79
2022/01/27 06:57:16;;;;;;;36.97;21.93;;;;;;;2.68;88.41;101303.16;5055020;28;20244;-78
2022/01/27 06:59:43;;;;;;;35.90;22.33;;;;;;;2.64;88.45;101299.63;5058630;28;20221;-77
2022/01/27 07:02:09;;;;;;;28.03;19.10;;;;;;;2.50;89.41;101295.81;5058574;28;20205;-78
2022/01/27 07:04:35;;;;;;;32.17;20.03;;;;;;;2.63;89.82;101284.97;5056662;28;20695;-79
2022/01/27 07:07:02;;;;;;;35.53;21.77;;;;;;;2.50;90.98;101265.75;5055805;28;20226;-77
2022/01/27 07:09:28;;;;;;;36.23;23.70;;;;;;;2.44;91.32;101247.56;5053537;28;20206;-76
2022/01/27 07:11:56;;;;;;;40.37;21.27;;;;;;;2.41;92.09;101207.94;5053636;28;20210;-78
2022/01/27 07:14:23;;;;;;;39.67;22.37;;;;;;;2.51;92.61;101189.31;5052388;28;20213;-78
2022/01/27 07:16:49;;;;;;;37.30;22.37;;;;;;;2.53;92.54;101178.19;5050516;28;20275;-78
2022/01/27 07:19:16;;;;;;;39.17;22.13;;;;;;;2.42;93.03;101166.75;5052689;28;20225;-78
2022/01/27 07:21:43;;;;;;;32.67;21.27;;;;;;;2.54;92.83;101145.59;5053380;28;20210;-77
2022/01/27 07:24:09;;;;;;;34.50;22.20;;;;;;;2.62;92.89;101145.75;5050486;28;20620;-77
2022/01/27 07:26:35;;;;;;;37.57;22.00;;;;;;;2.70;91.99;101139.13;5054688;28;20247;-78
2022/01/27 07:29:03;;;;;;;36.23;21.80;;;;;;;2.71;91.87;101141.69;5053079;28;20198;-78
2022/01/27 07:31:29;;;;;;;43.17;23.70;;;;;;;2.74;91.85;101159.84;5050512;28;20247;-78
2022/01/27 07:33:56;;;;;;;39.00;22.23;;;;;;;2.67;92.41;101139.88;5053075;28;20908;-78
2022/01/27 07:36:22;;;;;;;33.20;21.73;;;;;;;2.66;92.47;101140.75;5054113;28;20201;-79
2022/01/27 07:38:49;;;;;;;34.33;22.13;;;;;;;2.75;92.16;101130.63;5054712;28;20205;-79
2022/01/27 07:41:17;;;;;;;33.40;20.87;;;;;;;2.75;91.64;101122.03;5054221;28;20197;-77
2022/01/27 07:43:44;;;;;;;33.83;21.30;;;;;;;2.85;92.03;101116.25;5053876;28;20213;-78
2022/01/27 07:46:13;;;;;;;33.80;20.90;;;;;;;2.87;91.30;101116.28;5053029;28;20885;-78
2022/01/27 07:48:39;;;;;;;30.60;21.33;;;;;;;2.94;91.14;101125.94;5053682;28;20225;-79
2022/01/27 07:51:07;;;;;;;33.40;20.93;;;;;;;2.86;91.52;101128.31;5054004;28;20197;-76
2022/01/27 07:53:34;;;;;;;31.50;20.77;;;;;;;2.96;91.97;101104.50;5053446;28;20240;-76
2022/01/27 07:56:02;;;;;;;36.00;20.73;;;;;;;2.96;91.84;101104.50;5053320;28;20213;-77
2022/01/27 07:58:28;;;;;;;38.03;21.47;;;;;;;3.02;91.85;101084.84;5051595;28;20243;-77
2022/01/27 08:00:54;;;;;;;36.23;22.37;;;;;;;3.09;91.90;101092.75;5052804;28;20278;-78
2022/01/27 08:03:22;;;;;;;37.23;21.83;;;;;;;3.17;91.79;101091.22;5052605;28;20566;-78
2022/01/27 08:05:49;;;;;;;28.27;20.53;;;;;;;3.14;91.89;101090.28;5052524;28;20205;-76
2022/01/27 08:08:15;;;;;;;30.67;21.00;;;;;;;3.12;92.10;101074.75;5052602;28;20636;-77
2022/01/27 08:10:42;;;;;;;26.63;19.90;;;;;;;3.16;92.41;101078.28;5052273;28;20241;-78
2022/01/27 08:13:10;;;;;;;29.47;19.93;;;;;;;3.14;92.21;101070.50;5052648;28;20202;-77
2022/01/27 08:15:36;;;;;;;29.40;19.90;;;;;;;3.23;92.58;101061.22;5052702;28;20558;-78
2022/01/27 08:18:04;;;;;;;27.50;19.13;;;;;;;3.09;92.79;101064.38;5052278;28;20226;-77
2022/01/27 08:20:32;;;;;;;28.83;19.67;;;;;;;3.14;92.63;101061.91;5052157;28;20602;-77
2022/01/27 08:22:59;;;;;;;26.80;19.50;;;;;;;3.26;92.59;101040.66;5052567;28;20211;-78
2022/01/27 08:25:26;;;;;;;21.87;18.07;;;;;;;3.24;92.65;101056.09;5053018;28;20201;-78
2022/01/27 08:27:55;;;;;;;25.60;18.83;;;;;;;3.20;92.75;101066.31;5052477;28;20311;-77
2022/01/27 08:30:26;;;;;;;23.40;16.90;;;;;;;3.21;92.53;101042.25;5051786;28;20228;-78
2022/01/27 08:32:58;;;;;;;26.00;18.27;;;;;;;3.28;92.81;101039.81;5052211;28;20304;-77
2022/01/27 08:35:26;;;;;;;23.43;17.10;;;;;;;3.31;92.84;101036.44;5052045;28;20206;-78
2022/01/27 08:37:53;;;;;;;23.47;18.87;;;;;;;3.31;93.29;101034.75;5051876;28;20784;-77
2022/01/27 08:40:21;;;;;;;25.87;18.07;;;;;;;3.36;93.01;101035.69;5051243;28;20228;-76
2022/01/27 08:42:47;;;;;;;21.83;16.23;;;;;;;3.38;93.45;101021.09;5051625;28;20634;-78
2022/01/27 08:45:16;;;;;;;23.03;18.40;;;;;;;3.33;94.58;100990.88;5052948;28;20225;-78
2022/01/27 08:47:43;;;;;;;21.77;16.50;;;;;;;3.37;95.14;100974.66;5052357;28;20240;-78
2022/01/27 08:50:11;;;;;;;23.43;17.20;;;;;;;3.37;95.52;100956.59;5051346;28;20197;-78
2022/01/27 08:52:38;;;;;;;19.23;16.23;;;;;;;3.30;96.13;100929.78;5051371;28;20205;-77
2022/01/27 08:55:08;;;;;;;21.33;17.33;;;;;;;3.37;96.93;100910.16;5051356;28;20212;-77
2022/01/27 08:57:35;;;;;;;18.37;16.30;;;;;;;3.31;97.33;100895.44;5050885;28;20781;-77
2022/01/27 09:00:04;;;;;;;20.20;16.03;;;;;;;3.34;98.00;100890.31;5051402;28;20223;-77
2022/01/27 09:02:30;;;;;;;18.53;16.03;;;;;;;3.38;97.64;100891.22;5052635;28;20738;-79
2022/01/27 09:04:57;;;;;;;17.60;15.13;;;;;;;3.38;98.13;100883.50;5050351;28;20512;-78
2022/01/27 09:07:23;;;;;;;21.77;16.07;;;;;;;3.44;97.87;100873.28;5055802;28;20279;-77
2022/01/27 09:09:49;;;;;;;16.27;14.57;;;;;;;3.49;97.88;100860.44;5054585;28;20220;-77
2022/01/27 09:12:17;;;;;;;21.20;15.10;;;;;;;3.53;98.21;100863.13;5055043;28;20205;-77
2022/01/27 09:14:44;;;;;;;16.97;14.70;;;;;;;3.57;98.31;100858.88;5054699;28;20213;-77
2022/01/27 09:17:11;;;;;;;20.50;13.60;;;;;;;3.57;98.49;100836.50;5055137;28;20632;-77
2022/01/27 09:19:40;;;;;;;18.87;14.23;;;;;;;3.55;99.12;100835.63;5051811;28;20589;-77
2022/01/27 09:22:11;;;;;;;18.60;13.97;;;;;;;3.58;99.33;100811.56;5054310;28;20259;-77
2022/01/27 09:24:40;;;;;;;16.47;13.00;;;;;;;3.50;100.00;100783.03;5051778;28;20546;-77
2022/01/27 09:27:07;;;;;;;14.03;12.73;;;;;;;3.45;100.00;100771.81;5054599;28;20224;-77
2022/01/27 09:29:35;;;;;;;15.70;14.10;;;;;;;3.59;100.00;100766.84;5053626;28;20201;-77
2022/01/27 09:32:03;;;;;;;13.27;11.80;;;;;;;3.67;100.00;100754.06;5053552;28;20197;-77
2022/01/27 09:34:30;;;;;;;13.63;12.23;;;;;;;3.69;100.00;100742.91;5055968;28;20251;-77
2022/01/27 09:36:57;;;;;;;14.33;12.93;;;;;;;3.68;100.00;100754.06;5051961;28;20266;-77
2022/01/27 09:39:24;;;;;;;14.00;12.50;;;;;;;3.66;100.00;100757.47;5053549;28;20217;-78
2022/01/27 09:41:54;;;;;;;14.03;12.63;;;;;;;3.65;100.00;100763.47;5055687;28;20205;-80
2022/01/27 09:44:24;;;;;;;13.70;12.30;;;;;;;3.64;100.00;100752.28;5053750;28;20196;-77
2022/01/27 09:46:53;;;;;;;14.43;12.77;;;;;;;3.67;100.00;100742.00;5053349;28;20727;-78
2022/01/27 09:49:30;;;;;;;12.90;11.60;;;;;;;3.54;100.00;100727.19;5054120;28;20334;-77
2022/01/27 09:51:57;;;;;;;13.27;11.33;;;;;;;3.51;100.00;100719.41;5055924;28;20213;-78
2022/01/27 09:54:23;;;;;;;12.60;11.30;;;;;;;3.58;100.00;100703.16;5055207;28;20259;-78
2022/01/27 09:56:49;;;;;;;14.88;13.60;;;;;;;3.54;100.00;100716.84;5052804;28;20427;-79
2022/01/27 09:59:16;;;;;;;13.43;11.77;;;;;;;3.50;100.00;100686.69;5052443;28;20224;-79
2022/01/27 10:01:59;;;;;;;10.80;9.70;;;;;;;3.67;100.00;100676.63;5053454;28;20446;-76
2022/01/27 10:04:42;;;;;;;10.83;9.80;;;;;;;3.77;100.00;100676.75;5054426;28;20210;-78
2022/01/27 10:07:09;;;;;;;10.90;9.90;;;;;;;3.76;100.00;100671.53;5055236;28;20247;-78
2022/01/27 10:09:35;;;;;;;13.73;11.40;;;;;;;3.75;100.00;100664.66;5055248;28;20253;-77
2022/01/27 10:12:03;;;;;;;11.23;10.23;;;;;;;3.84;100.00;100669.06;5055834;28;20205;-78
2022/01/27 10:14:33;;;;;;;13.00;11.80;;;;;;;3.85;100.00;100665.66;5054886;28;20267;-78
2022/01/27 10:17:04;;;;;;;9.57;8.67;;;;;;;3.85;100.00;100652.75;5054192;28;20229;-78
2022/01/27 10:19:35;;;;;;;8.27;7.57;;;;;;;3.88;100.00;100673.41;5054470;28;20703;-77
2022/01/27 10:22:04;;;;;;;8.20;7.50;;;;;;;3.95;100.00;100670.06;5055473;28;20186;-78
2022/01/27 10:24:32;;;;;;;7.40;6.70;;;;;;;3.91;100.00;100673.47;5053761;28;20201;-77
2022/01/27 10:27:21;;;;;;;9.13;8.43;;;;;;;3.98;100.00;100665.81;5053029;28;20435;-78
2022/01/27 10:30:04;;;;;;;7.40;6.80;;;;;;;3.98;100.00;100672.66;5047690;28;20562;-76
2022/01/27 10:32:40;;;;;;;6.70;6.13;;;;;;;4.01;100.00;100675.31;5053345;28;20209;-77
2022/01/27 10:35:08;;;;;;;5.90;5.40;;;;;;;4.03;100.00;100673.59;5052497;28;20676;-76
2022/01/27 10:37:54;;;;;;;6.23;5.63;;;;;;;4.02;100.00;100674.44;5053216;28;20237;-77
2022/01/27 10:40:22;;;;;;;7.40;6.70;;;;;;;4.02;100.00;100661.53;5052818;28;20233;-76
2022/01/27 10:42:59;;;;;;;6.30;5.70;;;;;;;3.98;100.00;100640.00;5052502;28;20205;-77
2022/01/27 10:45:26;;;;;;;7.37;6.77;;;;;;;3.93;100.00;100638.19;5053231;28;20213;-77
2022/01/27 10:48:07;;;;;;;6.70;6.10;;;;;;;4.04;100.00;100646.06;5053355;28;20221;-76
2022/01/27 10:50:48;;;;;;;6.70;6.20;;;;;;;4.12;100.00;100636.66;5053151;28;20229;-77
2022/01/27 10:53:14;;;;;;;6.73;6.13;;;;;;;4.11;100.00;100646.13;5053808;28;20259;-76
2022/01/27 10:55:41;;;;;;;6.50;5.80;;;;;;;4.18;100.00;100639.31;5054239;28;20217;-77
2022/01/27 10:58:26;;;;;;;6.30;5.80;;;;;;;4.23;100.00;100645.41;5053101;28;20283;-77
2022/01/27 11:00:59;;;;;;;6.60;6.00;;;;;;;4.26;100.00;100655.78;5052062;28;20264;-77
2022/01/27 11:03:28;;;;;;;6.23;5.73;;;;;;;4.28;100.00;100669.59;5053318;28;20577;-78
2022/01/27 11:05:56;;;;;;;6.53;6.03;;;;;;;4.31;100.00;100682.50;5052852;28;20263;-77
2022/01/27 11:08:26;;;;;;;6.60;6.10;;;;;;;4.33;100.00;100678.22;5053166;28;20226;-77
2022/01/27 11:10:52;;;;;;;5.93;5.40;;;;;;;4.33;100.00;100667.03;5053009;28;20207;-77
2022/01/27 11:13:21;;;;;;;6.17;5.67;;;;;;;4.40;100.00;100686.94;5052844;28;20210;-76
2022/01/27 11:15:48;;;;;;;6.27;5.77;;;;;;;4.39;100.00;100669.69;5053651;28;20258;-77
2022/01/27 11:18:15;;;;;;;6.23;5.73;;;;;;;4.40;100.00;100652.44;5060855;28;20227;-76
2022/01/27 11:20:54;;;;;;;5.97;5.47;;;;;;;4.48;100.00;100661.13;5061995;28;20711;-77
2022/01/27 11:26:08;;;;;;;6.83;6.27;;;;;;;4.50;100.00;100677.53;5061954;28;20272;-80
2022/01/27 11:28:35;;;;;;;6.30;5.80;;;;;;;4.51;100.00;100663.75;5058612;28;20645;-77
2022/01/27 11:31:16;;;;;;;7.80;7.10;;;;;;;4.55;100.00;100665.53;5061470;28;20201;-79
2022/01/27 11:33:45;;;;;;;7.33;6.73;;;;;;;4.61;100.00;100668.16;5061066;28;20227;-78
2022/01/27 11:36:19;;;;;;;7.70;7.10;;;;;;;4.66;100.00;100692.34;5072001;28;20215;-77
2022/01/27 11:38:46;;;;;;;8.37;7.57;;;;;;;4.69;100.00;100694.94;5070912;28;20646;-77
2022/01/27 11:41:42;;;;;;;7.63;7.00;;;;;;;4.73;100.00;100682.91;5072183;28;20282;-78
2022/01/27 11:44:28;;;;;;;9.07;8.17;;;;;;;4.71;100.00;100680.31;5064238;28;20250;-78